sensor_id;sensor_type;location;lat;lon;timestamp;pressure;altitude;pressure_sealevel;temperature;humidity
1616;BME280;801;47.982;7.810;2022-12-07T03:30:56;98756.28;;;5.46;100.00
1616;BME280;801;47.982;7.810;2022-12-07T03:33:27;98752.00;;;5.45;100.00
1616;BME280;801;47.982;7.810;2022-12-07T03:36:00;98756.88;;;5.30;100.00
1616;BME280;801;47.982;7.810;2022-12-07T03:38:31;98754.97;;;5.37;100.00
1616;BME280;801;47.982;7.810;2022-12-07T03:41:01;98745.19;;;5.49;100.00
1616;BME280;801;47.982;7.810;2022-12-07T03:43:32;98754.69;;;5.45;100.00
1616;BME280;801;47.982;7.810;2022-12-07T03:46:07;98751.41;;;5.43;100.00
1616;BME280;801;47.982;7.810;2022-12-07T03:48:41;98750.78;;;5.04;100.00
1616;BME280;801;47.982;7.810;2022-12-07T03:51:16;98745.34;;;5.36;100.00
1616;BME280;801;47.982;7.810;2022-12-07T03:53:48;98741.53;;;5.62;100.00
1616;BME280;801;47.982;7.810;2022-12-07T03:56:18;98732.44;;;5.51;100.00
1616;BME280;801;47.982;7.810;2022-12-07T03:58:46;98739.03;;;5.67;100.00
1616;BME280;801;47.982;7.810;2022-12-07T04:01:14;98737.75;;;5.70;100.00
1616;BME280;801;47.982;7.810;2022-12-07T04:03:40;98737.19;;;5.49;100.00
1616;BME280;801;47.982;7.810;2022-12-07T04:06:07;98736.19;;;5.62;100.00
1616;BME280;801;47.982;7.810;2022-12-07T04:08:33;98736.13;;;5.69;100.00
1616;BME280;801;47.982;7.810;2022-12-07T04:11:00;98732.47;;;5.14;100.00
1616;BME280;801;47.982;7.810;2022-12-07T04:13:27;98728.91;;;5.39;100.00
1616;BME280;801;47.982;7.810;2022-12-07T04:15:53;98730.34;;;5.72;100.00
1616;BME280;801;47.982;7.810;2022-12-07T04:18:22;98735.69;;;5.53;100.00
1616;BME280;801;47.982;7.810;2022-12-07T04:20:48;98738.56;;;5.70;100.00
1616;BME280;801;47.982;7.810;2022-12-07T04:23:15;98730.28;;;5.78;100.00
1616;BME280;801;47.982;7.810;2022-12-07T04:25:42;98729.19;;;5.68;100.00
1616;BME280;801;47.982;7.810;2022-12-07T04:28:08;98737.69;;;5.58;100.00
1616;BME280;801;47.982;7.810;2022-12-07T04:30:35;98741.53;;;5.80;100.00
1616;BME280;801;47.982;7.810;2022-12-07T04:33:01;98746.66;;;5.94;100.00
1616;BME280;801;47.982;7.810;2022-12-07T04:35:29;98729.59;;;5.83;100.00
1616;BME280;801;47.982;7.810;2022-12-07T04:37:55;98727.84;;;5.89;100.00
1616;BME280;801;47.982;7.810;2022-12-07T04:40:22;98729.59;;;5.83;100.00
1616;BME280;801;47.982;7.810;2022-12-07T04:42:48;98731.56;;;5.88;100.00
1616;BME280;801;47.982;7.810;2022-12-07T04:45:15;98728.03;;;5.75;100.00
1616;BME280;801;47.982;7.810;2022-12-07T04:47:42;98728.94;;;5.69;100.00
1616;BME280;801;47.982;7.810;2022-12-07T04:50:09;98723.34;;;5.59;100.00
1616;BME280;801;47.982;7.810;2022-12-07T04:52:37;98716.59;;;5.56;100.00
1616;BME280;801;47.982;7.810;2022-12-07T04:55:04;98721.94;;;5.56;100.00
1616;BME280;801;47.982;7.810;2022-12-07T04:57:31;98717.72;;;5.30;100.00
1616;BME280;801;47.982;7.810;2022-12-07T04:59:57;98718.59;;;5.24;100.00
1616;BME280;801;47.982;7.810;2022-12-07T05:02:24;98711.28;;;5.19;100.00
1616;BME280;801;47.982;7.810;2022-12-07T05:04:50;98719.88;;;5.22;100.00
1616;BME280;801;47.982;7.810;2022-12-07T05:07:17;98720.47;;;4.87;100.00
1616;BME280;801;47.982;7.810;2022-12-07T05:09:45;98716.16;;;5.04;100.00
1616;BME280;801;47.982;7.810;2022-12-07T05:12:11;98713.63;;;4.91;100.00
1616;BME280;801;47.982;7.810;2022-12-07T05:14:38;98716.75;;;4.88;100.00
1616;BME280;801;47.982;7.810;2022-12-07T05:17:04;98711.44;;;5.06;100.00
1616;BME280;801;47.982;7.810;2022-12-07T05:19:31;98714.41;;;5.16;100.00
1616;BME280;801;47.982;7.810;2022-12-07T05:21:57;98715.75;;;5.07;100.00
1616;BME280;801;47.982;7.810;2022-12-07T05:24:24;98712.16;;;5.13;100.00
1616;BME280;801;47.982;7.810;2022-12-07T05:26:52;98711.44;;;5.06;100.00
1616;BME280;801;47.982;7.810;2022-12-07T05:29:18;98708.84;;;4.99;100.00
1616;BME280;801;47.982;7.810;2022-12-07T05:31:45;98711.06;;;5.21;100.00
1616;BME280;801;47.982;7.810;2022-12-07T05:34:12;98710.84;;;5.04;100.00
1616;BME280;801;47.982;7.810;2022-12-07T05:36:38;98712.09;;;5.02;100.00
1616;BME280;801;47.982;7.810;2022-12-07T05:39:05;98709.97;;;5.10;100.00
1616;BME280;801;47.982;7.810;2022-12-07T05:41:32;98711.34;;;4.94;100.00
1616;BME280;801;47.982;7.810;2022-12-07T05:44:18;98713.34;;;4.81;100.00
1616;BME280;801;47.982;7.810;2022-12-07T05:46:44;98707.84;;;4.75;100.00
1616;BME280;801;47.982;7.810;2022-12-07T05:49:11;98706.78;;;4.58;100.00
1616;BME280;801;47.982;7.810;2022-12-07T05:51:37;98710.81;;;4.67;100.00
1616;BME280;801;47.982;7.810;2022-12-07T05:54:04;98715.44;;;4.53;100.00
1616;BME280;801;47.982;7.810;2022-12-07T05:56:31;98714.75;;;4.33;100.00
1616;BME280;801;47.982;7.810;2022-12-07T05:58:57;98706.00;;;4.51;100.00
1616;BME280;801;47.982;7.810;2022-12-07T06:01:42;98709.78;;;4.43;100.00
1616;BME280;801;47.982;7.810;2022-12-07T06:04:09;98710.59;;;4.44;100.00
1616;BME280;801;47.982;7.810;2022-12-07T06:06:36;98723.13;;;4.36;100.00
1616;BME280;801;47.982;7.810;2022-12-07T06:09:03;98715.19;;;4.05;100.00
1616;BME280;801;47.982;7.810;2022-12-07T06:11:29;98715.53;;;3.77;100.00
1616;BME280;801;47.982;7.810;2022-12-07T06:14:13;98714.44;;;4.23;100.00
1616;BME280;801;47.982;7.810;2022-12-07T06:16:40;98719.28;;;4.32;100.00
1616;BME280;801;47.982;7.810;2022-12-07T06:19:08;98723.75;;;4.07;100.00
1616;BME280;801;47.982;7.810;2022-12-07T06:21:35;98714.06;;;4.19;100.00
1616;BME280;801;47.982;7.810;2022-12-07T06:24:01;98718.41;;;4.39;100.00
1616;BME280;801;47.982;7.810;2022-12-07T06:26:28;98715.19;;;4.30;100.00
1616;BME280;801;47.982;7.810;2022-12-07T06:28:55;98715.59;;;4.33;100.00
1616;BME280;801;47.982;7.810;2022-12-07T06:31:21;98714.53;;;4.09;100.00
1616;BME280;801;47.982;7.810;2022-12-07T06:33:48;98712.53;;;4.05;100.00
1616;BME280;801;47.982;7.810;2022-12-07T06:36:16;98717.00;;;4.11;100.00
1616;BME280;801;47.982;7.810;2022-12-07T06:38:42;98707.81;;;4.07;100.00
1616;BME280;801;47.982;7.810;2022-12-07T06:41:09;98710.63;;;4.12;100.00
1616;BME280;801;47.982;7.810;2022-12-07T06:43:35;98712.94;;;4.02;100.00
1616;BME280;801;47.982;7.810;2022-12-07T06:46:02;98708.38;;;4.15;100.00
1616;BME280;801;47.982;7.810;2022-12-07T06:48:28;98713.53;;;4.35;100.00
1616;BME280;801;47.982;7.810;2022-12-07T06:50:55;98719.94;;;3.96;100.00
1616;BME280;801;47.982;7.810;2022-12-07T06:53:23;98729.91;;;3.69;100.00
1616;BME280;801;47.982;7.810;2022-12-07T06:55:50;98729.69;;;3.12;100.00
1616;BME280;801;47.982;7.810;2022-12-07T06:58:16;98728.91;;;3.11;100.00
1616;BME280;801;47.982;7.810;2022-12-07T07:00:44;98733.91;;;3.46;100.00
1616;BME280;801;47.982;7.810;2022-12-07T07:03:10;98734.56;;;3.35;100.00
1616;BME280;801;47.982;7.810;2022-12-07T07:05:37;98738.28;;;3.14;100.00
1616;BME280;801;47.982;7.810;2022-12-07T07:08:03;98726.09;;;2.93;100.00
1616;BME280;801;47.982;7.810;2022-12-07T07:10:31;98742.53;;;3.35;100.00
1616;BME280;801;47.982;7.810;2022-12-07T07:12:58;98739.47;;;3.25;100.00
1616;BME280;801;47.982;7.810;2022-12-07T07:15:24;98744.16;;;3.29;100.00
1616;BME280;801;47.982;7.810;2022-12-07T07:17:51;98745.78;;;3.82;100.00
1616;BME280;801;47.982;7.810;2022-12-07T07:20:17;98754.97;;;3.86;100.00
1616;BME280;801;47.982;7.810;2022-12-07T07:22:44;98757.47;;;4.13;100.00
1616;BME280;801;47.982;7.810;2022-12-07T07:25:10;98764.06;;;4.04;100.00
1616;BME280;801;47.982;7.810;2022-12-07T07:27:38;98762.69;;;4.26;100.00
1616;BME280;801;47.982;7.810;2022-12-07T07:30:06;98768.81;;;4.33;100.00
1616;BME280;801;47.982;7.810;2022-12-07T07:32:33;98776.50;;;4.42;100.00
1616;BME280;801;47.982;7.810;2022-12-07T07:35:00;98773.78;;;4.23;100.00
1616;BME280;801;47.982;7.810;2022-12-07T07:37:26;98778.25;;;3.98;100.00
1616;BME280;801;47.982;7.810;2022-12-07T07:39:53;98781.31;;;4.26;100.00
1616;BME280;801;47.982;7.810;2022-12-07T07:42:19;98778.13;;;3.72;100.00
1616;BME280;801;47.982;7.810;2022-12-07T07:44:47;98778.09;;;3.79;100.00
1616;BME280;801;47.982;7.810;2022-12-07T07:47:14;98780.91;;;3.98;100.00
1616;BME280;801;47.982;7.810;2022-12-07T07:49:40;98784.41;;;4.23;100.00
1616;BME280;801;47.982;7.810;2022-12-07T07:52:07;98782.88;;;4.09;100.00
1616;BME280;801;47.982;7.810;2022-12-07T07:54:33;98786.75;;;4.45;100.00
1616;BME280;801;47.982;7.810;2022-12-07T07:57:00;98786.91;;;4.50;100.00
1616;BME280;801;47.982;7.810;2022-12-07T07:59:26;98791.34;;;4.31;100.00
1616;BME280;801;47.982;7.810;2022-12-07T08:01:54;98787.44;;;4.33;100.00
1616;BME280;801;47.982;7.810;2022-12-07T08:04:21;98788.00;;;4.42;100.00
1616;BME280;801;47.982;7.810;2022-12-07T08:06:47;98788.81;;;4.43;100.00
1616;BME280;801;47.982;7.810;2022-12-07T08:09:14;98790.31;;;4.32;100.00
1616;BME280;801;47.982;7.810;2022-12-07T08:11:40;98794.78;;;4.00;100.00
1616;BME280;801;47.982;7.810;2022-12-07T08:14:07;98794.50;;;3.69;100.00
1616;BME280;801;47.982;7.810;2022-12-07T08:16:33;98792.38;;;3.91;100.00
1616;BME280;801;47.982;7.810;2022-12-07T08:19:01;98796.03;;;3.90;100.00
1616;BME280;801;47.982;7.810;2022-12-07T08:21:28;98793.78;;;3.94;100.00
1616;BME280;801;47.982;7.810;2022-12-07T08:23:54;98799.72;;;3.96;100.00
1616;BME280;801;47.982;7.810;2022-12-07T08:26:21;98799.50;;;3.98;100.00
1616;BME280;801;47.982;7.810;2022-12-07T08:28:47;98797.41;;;4.06;100.00
1616;BME280;801;47.982;7.810;2022-12-07T08:31:16;98799.84;;;4.08;100.00
1616;BME280;801;47.982;7.810;2022-12-07T08:33:44;98804.50;;;4.19;100.00
1616;BME280;801;47.982;7.810;2022-12-07T08:36:12;98799.53;;;4.29;100.00
1616;BME280;801;47.982;7.810;2022-12-07T08:38:40;98798.94;;;4.27;100.00
1616;BME280;801;47.982;7.810;2022-12-07T08:41:08;98798.59;;;4.49;100.00
1616;BME280;801;47.982;7.810;2022-12-07T08:43:34;98801.25;;;4.49;100.00
1616;BME280;801;47.982;7.810;2022-12-07T08:46:06;98801.41;;;4.54;100.00
1616;BME280;801;47.982;7.810;2022-12-07T08:48:36;98795.59;;;4.64;100.00
1616;BME280;801;47.982;7.810;2022-12-07T08:51:05;98802.81;;;4.82;100.00
1616;BME280;801;47.982;7.810;2022-12-07T08:53:33;98796.19;;;4.91;100.00
1616;BME280;801;47.982;7.810;2022-12-07T08:56:01;98804.72;;;4.99;100.00
1616;BME280;801;47.982;7.810;2022-12-07T08:58:28;98800.97;;;4.25;100.00
1616;BME280;801;47.982;7.810;2022-12-07T09:00:54;98794.41;;;5.10;100.00
1616;BME280;801;47.982;7.810;2022-12-07T09:03:21;98796.63;;;5.31;100.00
1616;BME280;801;47.982;7.810;2022-12-07T09:05:47;98801.00;;;5.44;100.00
1616;BME280;801;47.982;7.810;2022-12-07T09:08:14;98792.53;;;5.10;100.00
1616;BME280;801;47.982;7.810;2022-12-07T09:10:43;98797.28;;;5.27;100.00
1616;BME280;801;47.982;7.810;2022-12-07T09:13:09;98799.53;;;5.30;100.00
1616;BME280;801;47.982;7.810;2022-12-07T09:15:36;98800.88;;;5.39;100.00
1616;BME280;801;47.982;7.810;2022-12-07T09:18:02;98801.16;;;5.31;100.00
1616;BME280;801;47.982;7.810;2022-12-07T09:20:29;98809.00;;;5.26;100.00
1616;BME280;801;47.982;7.810;2022-12-07T09:22:55;98805.19;;;4.71;100.00
1616;BME280;801;47.982;7.810;2022-12-07T09:25:22;98805.72;;;5.24;100.00
1616;BME280;801;47.982;7.810;2022-12-07T09:27:55;98808.25;;;5.18;100.00
1616;BME280;801;47.982;7.810;2022-12-07T09:30:21;98811.50;;;5.20;100.00
1616;BME280;801;47.982;7.810;2022-12-07T09:32:48;98804.72;;;5.25;100.00
1616;BME280;801;47.982;7.810;2022-12-07T09:35:15;98808.25;;;5.37;100.00
1616;BME280;801;47.982;7.810;2022-12-07T09:37:41;98804.72;;;5.43;100.00
1616;BME280;801;47.982;7.810;2022-12-07T09:40:08;98800.19;;;5.44;100.00
1616;BME280;801;47.982;7.810;2022-12-07T09:42:37;98797.00;;;5.53;100.00
1616;BME280;801;47.982;7.810;2022-12-07T09:45:10;98795.09;;;5.60;100.00
1616;BME280;801;47.982;7.810;2022-12-07T09:47:38;98804.44;;;5.70;100.00
1616;BME280;801;47.982;7.810;2022-12-07T09:50:11;98794.00;;;5.50;100.00
1616;BME280;801;47.982;7.810;2022-12-07T09:52:38;98791.69;;;5.72;100.00
1616;BME280;801;47.982;7.810;2022-12-07T09:55:10;98782.72;;;6.03;100.00
1616;BME280;801;47.982;7.810;2022-12-07T09:57:38;98787.50;;;5.76;100.00
1616;BME280;801;47.982;7.810;2022-12-07T10:00:12;98785.22;;;5.79;100.00
1616;BME280;801;47.982;7.810;2022-12-07T10:02:40;98781.06;;;6.02;100.00
1616;BME280;801;47.982;7.810;2022-12-07T10:05:13;98778.59;;;6.00;100.00
1616;BME280;801;47.982;7.810;2022-12-07T10:07:40;98784.59;;;6.14;100.00
1616;BME280;801;47.982;7.810;2022-12-07T10:10:14;98777.00;;;5.99;100.00
1616;BME280;801;47.982;7.810;2022-12-07T10:12:56;98772.13;;;5.96;100.00
1616;BME280;801;47.982;7.810;2022-12-07T10:15:41;98765.59;;;6.22;100.00
1616;BME280;801;47.982;7.810;2022-12-07T10:18:18;98773.88;;;6.02;100.00
1616;BME280;801;47.982;7.810;2022-12-07T10:20:45;98765.13;;;5.95;99.96
1616;BME280;801;47.982;7.810;2022-12-07T10:23:15;98760.19;;;5.80;100.00
1616;BME280;801;47.982;7.810;2022-12-07T10:25:42;98756.63;;;6.59;97.71
1616;BME280;801;47.982;7.810;2022-12-07T10:28:17;98754.31;;;7.10;92.70
1616;BME280;801;47.982;7.810;2022-12-07T10:31:03;98759.03;;;7.55;88.81
1616;BME280;801;47.982;7.810;2022-12-07T10:33:50;98754.31;;;7.74;85.16
1616;BME280;801;47.982;7.810;2022-12-07T10:36:20;98748.75;;;7.63;79.41
1616;BME280;801;47.982;7.810;2022-12-07T10:38:49;98747.31;;;7.84;76.71
1616;BME280;801;47.982;7.810;2022-12-07T10:41:16;98747.53;;;8.11;78.49
1616;BME280;801;47.982;7.810;2022-12-07T10:43:47;98743.53;;;8.43;73.41
1616;BME280;801;47.982;7.810;2022-12-07T10:52:04;98724.19;;;9.30;73.43
1616;BME280;801;47.982;7.810;2022-12-07T10:54:42;98721.00;;;9.77;69.50
1616;BME280;801;47.982;7.810;2022-12-07T10:57:22;98717.91;;;9.91;64.66
1616;BME280;801;47.982;7.810;2022-12-07T11:00:18;98715.25;;;9.91;62.65
1616;BME280;801;47.982;7.810;2022-12-07T11:02:59;98707.94;;;10.13;62.65
1616;BME280;801;47.982;7.810;2022-12-07T11:05:39;98709.16;;;10.28;61.45
1616;BME280;801;47.982;7.810;2022-12-07T11:08:15;98711.03;;;10.92;59.36
1616;BME280;801;47.982;7.810;2022-12-07T11:10:48;98704.47;;;11.25;58.15
1616;BME280;801;47.982;7.810;2022-12-07T11:13:29;98708.81;;;10.84;57.70
1616;BME280;801;47.982;7.810;2022-12-07T11:16:16;98703.94;;;10.43;56.93
1616;BME280;801;47.982;7.810;2022-12-07T11:18:54;98692.25;;;10.59;56.95
1616;BME280;801;47.982;7.810;2022-12-07T11:21:30;98689.06;;;10.30;56.74
1616;BME280;801;47.982;7.810;2022-12-07T11:24:02;98698.88;;;9.65;57.63
1616;BME280;801;47.982;7.810;2022-12-07T11:26:42;98691.94;;;10.56;56.48
1616;BME280;801;47.982;7.810;2022-12-07T11:29:25;98683.81;;;10.83;55.67
1616;BME280;801;47.982;7.810;2022-12-07T11:32:03;98685.81;;;11.76;53.07
1616;BME280;801;47.982;7.810;2022-12-07T11:34:41;98681.59;;;12.11;54.43
1616;BME280;801;47.982;7.810;2022-12-07T11:37:13;98682.69;;;12.20;48.13
1616;BME280;801;47.982;7.810;2022-12-07T11:39:47;98676.75;;;11.93;50.97
1616;BME280;801;47.982;7.810;2022-12-07T11:42:20;98678.63;;;12.59;49.04
1616;BME280;801;47.982;7.810;2022-12-07T11:44:50;98662.91;;;13.72;44.35
1616;BME280;801;47.982;7.810;2022-12-07T11:47:25;98659.59;;;13.25;46.32
1616;BME280;801;47.982;7.810;2022-12-07T11:50:01;98664.88;;;12.50;46.82
1616;BME280;801;47.982;7.810;2022-12-07T11:52:37;98671.31;;;12.75;43.72
1616;BME280;801;47.982;7.810;2022-12-07T11:55:16;98668.69;;;12.08;45.15
1616;BME280;801;47.982;7.810;2022-12-07T11:57:46;98656.88;;;11.36;48.33
1616;BME280;801;47.982;7.810;2022-12-07T12:00:16;98656.75;;;11.78;47.42
1616;BME280;801;47.982;7.810;2022-12-07T12:02:48;98644.84;;;11.49;48.50
1616;BME280;801;47.982;7.810;2022-12-07T12:05:19;98644.91;;;11.84;49.46
1616;BME280;801;47.982;7.810;2022-12-07T12:07:50;98639.50;;;11.59;49.68
1616;BME280;801;47.982;7.810;2022-12-07T12:10:24;98641.03;;;11.39;53.07
1616;BME280;801;47.982;7.810;2022-12-07T12:13:34;98632.75;;;10.41;59.12
1616;BME280;801;47.982;7.810;2022-12-07T12:16:25;98632.47;;;10.42;61.06
1616;BME280;801;47.982;7.810;2022-12-07T12:19:14;98628.91;;;9.01;69.47
1616;BME280;801;47.982;7.810;2022-12-07T12:21:46;98628.19;;;9.54;68.98
1616;BME280;801;47.982;7.810;2022-12-07T12:24:17;98626.16;;;9.94;68.40
1616;BME280;801;47.982;7.810;2022-12-07T12:26:50;98617.25;;;9.61;68.67
1616;BME280;801;47.982;7.810;2022-12-07T12:29:22;98616.97;;;8.86;74.04
1616;BME280;801;47.982;7.810;2022-12-07T12:32:05;98617.59;;;9.16;73.59
1616;BME280;801;47.982;7.810;2022-12-07T12:34:39;98615.56;;;8.62;76.07
1616;BME280;801;47.982;7.810;2022-12-07T12:37:39;98616.00;;;8.76;76.17
1616;BME280;801;47.982;7.810;2022-12-07T12:40:42;98614.06;;;8.71;75.49
1616;BME280;801;47.982;7.810;2022-12-07T12:43:40;98606.84;;;8.55;76.94
1616;BME280;801;47.982;7.810;2022-12-07T12:46:45;98605.94;;;8.66;73.54
1616;BME280;801;47.982;7.810;2022-12-07T12:49:34;98606.31;;;8.02;74.58
1616;BME280;801;47.982;7.810;2022-12-07T12:55:19;98604.69;;;8.51;75.55
1616;BME280;801;47.982;7.810;2022-12-07T13:04:01;98588.47;;;8.07;71.25
1616;BME280;801;47.982;7.810;2022-12-07T13:06:34;98597.69;;;8.17;70.09
1616;BME280;801;47.982;7.810;2022-12-07T13:09:03;98599.25;;;7.96;71.31
1616;BME280;801;47.982;7.810;2022-12-07T13:11:32;98590.47;;;7.66;73.55
1616;BME280;801;47.982;7.810;2022-12-07T13:17:08;98590.84;;;8.04;72.27
1616;BME280;801;47.982;7.810;2022-12-07T13:19:56;98580.91;;;8.21;70.49
1616;BME280;801;47.982;7.810;2022-12-07T13:22:58;98579.16;;;8.66;69.00
1616;BME280;801;47.982;7.810;2022-12-07T13:25:45;98582.28;;;8.58;64.20
1616;BME280;801;47.982;7.810;2022-12-07T13:28:16;98581.88;;;8.32;68.74
1616;BME280;801;47.982;7.810;2022-12-07T13:30:47;98579.22;;;7.64;71.57
1616;BME280;801;47.982;7.810;2022-12-07T13:33:20;98577.09;;;7.83;68.86
1616;BME280;801;47.982;7.810;2022-12-07T13:35:46;98583.28;;;7.84;69.31
1616;BME280;801;47.982;7.810;2022-12-07T13:38:23;98574.59;;;7.94;69.64
1616;BME280;801;47.982;7.810;2022-12-07T13:41:12;98574.69;;;7.99;69.05
1616;BME280;801;47.982;7.810;2022-12-07T13:43:45;98576.13;;;7.56;69.11
1616;BME280;801;47.982;7.810;2022-12-07T13:46:13;98575.13;;;7.45;72.33
1616;BME280;801;47.982;7.810;2022-12-07T13:48:44;98578.59;;;7.45;73.18
1616;BME280;801;47.982;7.810;2022-12-07T13:51:18;98573.31;;;7.34;75.75
1616;BME280;801;47.982;7.810;2022-12-07T13:53:46;98572.66;;;7.43;74.89
1616;BME280;801;47.982;7.810;2022-12-07T13:56:14;98564.78;;;7.65;71.24
1616;BME280;801;47.982;7.810;2022-12-07T13:58:40;98567.84;;;7.74;71.05
1616;BME280;801;47.982;7.810;2022-12-07T14:01:09;98567.19;;;7.50;71.45
1616;BME280;801;47.982;7.810;2022-12-07T14:03:36;98570.91;;;7.49;72.69
1616;BME280;801;47.982;7.810;2022-12-07T14:06:07;98567.50;;;7.08;74.95
1616;BME280;801;47.982;7.810;2022-12-07T14:08:39;98564.34;;;7.40;74.20
1616;BME280;801;47.982;7.810;2022-12-07T14:11:08;98563.41;;;7.80;69.91
1616;BME280;801;47.982;7.810;2022-12-07T14:13:37;98561.97;;;7.43;67.74
1616;BME280;801;47.982;7.810;2022-12-07T14:16:21;98570.13;;;7.20;69.44
1616;BME280;801;47.982;7.810;2022-12-07T14:18:48;98563.81;;;6.97;71.51
1616;BME280;801;47.982;7.810;2022-12-07T14:21:16;98556.28;;;7.23;72.04
1616;BME280;801;47.982;7.810;2022-12-07T14:23:44;98553.72;;;6.88;72.94
1616;BME280;801;47.982;7.810;2022-12-07T14:26:12;98551.50;;;7.25;67.29
1616;BME280;801;47.982;7.810;2022-12-07T14:28:41;98557.19;;;7.00;67.73
1616;BME280;801;47.982;7.810;2022-12-07T14:31:11;98558.59;;;6.91;67.43
1616;BME280;801;47.982;7.810;2022-12-07T14:33:40;98550.91;;;6.94;69.67
1616;BME280;801;47.982;7.810;2022-12-07T14:36:08;98548.25;;;6.94;69.75
1616;BME280;801;47.982;7.810;2022-12-07T14:38:36;98548.97;;;7.18;71.90
1616;BME280;801;47.982;7.810;2022-12-07T14:41:03;98541.88;;;7.41;71.97
1616;BME280;801;47.982;7.810;2022-12-07T14:43:47;98540.09;;;7.30;75.19
1616;BME280;801;47.982;7.810;2022-12-07T14:46:14;98547.50;;;7.56;74.82
1616;BME280;801;47.982;7.810;2022-12-07T14:48:42;98545.78;;;7.50;76.38
1616;BME280;801;47.982;7.810;2022-12-07T14:51:10;98553.00;;;7.04;80.27
1616;BME280;801;47.982;7.810;2022-12-07T14:53:41;98555.56;;;6.99;82.81
1616;BME280;801;47.982;7.810;2022-12-07T14:56:09;98554.28;;;7.30;84.06
1616;BME280;801;47.982;7.810;2022-12-07T14:58:35;98551.63;;;7.18;84.24
1616;BME280;801;47.982;7.810;2022-12-07T15:01:02;98555.81;;;7.43;84.57
1616;BME280;801;47.982;7.810;2022-12-07T15:03:28;98557.25;;;7.17;88.62
1616;BME280;801;47.982;7.810;2022-12-07T15:05:57;98555.44;;;7.05;90.80
1616;BME280;801;47.982;7.810;2022-12-07T15:08:24;98561.44;;;7.13;93.07
1616;BME280;801;47.982;7.810;2022-12-07T15:10:50;98555.47;;;7.85;89.27
1616;BME280;801;47.982;7.810;2022-12-07T15:13:17;98554.81;;;8.11;87.98
1616;BME280;801;47.982;7.810;2022-12-07T15:16:01;98555.69;;;7.83;88.65
1616;BME280;801;47.982;7.810;2022-12-07T15:18:27;98547.44;;;7.85;89.56
1616;BME280;801;47.982;7.810;2022-12-07T15:20:54;98553.91;;;7.55;89.15
1616;BME280;801;47.982;7.810;2022-12-07T15:23:22;98549.97;;;7.92;87.94
1616;BME280;801;47.982;7.810;2022-12-07T15:25:48;98552.44;;;7.19;90.53
1616;BME280;801;47.982;7.810;2022-12-07T15:28:15;98554.19;;;6.84;95.47
1616;BME280;801;47.982;7.810;2022-12-07T15:30:43;98555.59;;;7.16;94.05
1616;BME280;801;47.982;7.810;2022-12-07T15:33:10;98547.78;;;6.57;97.29
1616;BME280;801;47.982;7.810;2022-12-07T15:35:38;98553.47;;;6.49;100.00
1616;BME280;801;47.982;7.810;2022-12-07T15:38:05;98547.09;;;6.38;100.00
1616;BME280;801;47.982;7.810;2022-12-07T15:40:32;98549.66;;;6.85;98.99
1616;BME280;801;47.982;7.810;2022-12-07T15:43:00;98551.16;;;6.93;97.97
1616;BME280;801;47.982;7.810;2022-12-07T15:45:26;98552.34;;;6.85;97.90
1616;BME280;801;47.982;7.810;2022-12-07T15:47:52;98550.50;;;6.85;97.78
1616;BME280;801;47.982;7.810;2022-12-07T15:50:22;98545.78;;;6.64;99.97
1616;BME280;801;47.982;7.810;2022-12-07T15:52:49;98545.84;;;6.29;100.00
1616;BME280;801;47.982;7.810;2022-12-07T15:55:15;98545.16;;;6.21;100.00
1616;BME280;801;47.982;7.810;2022-12-07T15:57:43;98551.38;;;6.51;100.00
1616;BME280;801;47.982;7.810;2022-12-07T16:00:10;98546.88;;;6.16;100.00
1616;BME280;801;47.982;7.810;2022-12-07T16:02:37;98548.72;;;6.51;100.00
1616;BME280;801;47.982;7.810;2022-12-07T16:05:04;98545.47;;;6.49;100.00
1616;BME280;801;47.982;7.810;2022-12-07T16:07:30;98541.06;;;6.54;100.00
1616;BME280;801;47.982;7.810;2022-12-07T16:09:57;98541.47;;;6.63;100.00
1616;BME280;801;47.982;7.810;2022-12-07T16:12:23;98547.38;;;6.65;100.00
1616;BME280;801;47.982;7.810;2022-12-07T16:14:51;98539.00;;;5.97;100.00
1616;BME280;801;47.982;7.810;2022-12-07T16:17:18;98540.69;;;6.51;100.00
1616;BME280;801;47.982;7.810;2022-12-07T16:19:44;98536.19;;;6.39;100.00
1616;BME280;801;47.982;7.810;2022-12-07T16:22:11;98532.47;;;5.93;100.00
1616;BME280;801;47.982;7.810;2022-12-07T16:24:37;98533.66;;;5.97;100.00
1616;BME280;801;47.982;7.810;2022-12-07T16:27:04;98530.66;;;6.06;100.00
1616;BME280;801;47.982;7.810;2022-12-07T16:29:30;98535.91;;;5.58;100.00
1616;BME280;801;47.982;7.810;2022-12-07T16:31:58;98538.19;;;6.32;100.00
1616;BME280;801;47.982;7.810;2022-12-07T16:34:25;98533.78;;;6.14;100.00
1616;BME280;801;47.982;7.810;2022-12-07T16:36:51;98527.88;;;6.12;100.00
1616;BME280;801;47.982;7.810;2022-12-07T16:39:18;98522.69;;;5.64;100.00
1616;BME280;801;47.982;7.810;2022-12-07T16:41:44;98529.28;;;5.49;100.00
1616;BME280;801;47.982;7.810;2022-12-07T16:44:12;98527.97;;;5.40;100.00
1616;BME280;801;47.982;7.810;2022-12-07T16:46:39;98519.72;;;5.95;100.00
1616;BME280;801;47.982;7.810;2022-12-07T16:49:11;98525.19;;;6.00;100.00
1616;BME280;801;47.982;7.810;2022-12-07T16:51:37;98523.34;;;6.01;100.00
1616;BME280;801;47.982;7.810;2022-12-07T16:54:04;98527.34;;;5.26;100.00
1616;BME280;801;47.982;7.810;2022-12-07T16:56:31;98527.34;;;5.56;100.00
1616;BME280;801;47.982;7.810;2022-12-07T16:58:57;98521.06;;;5.62;100.00
1616;BME280;801;47.982;7.810;2022-12-07T17:01:24;98522.69;;;5.64;100.00
1616;BME280;801;47.982;7.810;2022-12-07T17:03:53;98521.16;;;5.44;100.00
1616;BME280;801;47.982;7.810;2022-12-07T17:06:22;98510.97;;;5.41;100.00
1616;BME280;801;47.982;7.810;2022-12-07T17:08:50;98517.59;;;5.20;100.00
1616;BME280;801;47.982;7.810;2022-12-07T17:11:19;98511.13;;;5.16;100.00
1616;BME280;801;47.982;7.810;2022-12-07T17:13:46;98514.28;;;5.25;100.00
1616;BME280;801;47.982;7.810;2022-12-07T17:16:31;98512.28;;;5.20;100.00
1616;BME280;801;47.982;7.810;2022-12-07T17:18:58;98501.25;;;5.05;100.00
1616;BME280;801;47.982;7.810;2022-12-07T17:21:26;98516.56;;;4.91;100.00
1616;BME280;801;47.982;7.810;2022-12-07T17:23:52;98505.91;;;4.91;100.00
1616;BME280;801;47.982;7.810;2022-12-07T17:26:23;98504.91;;;4.92;100.00
1616;BME280;801;47.982;7.810;2022-12-07T17:28:50;98500.00;;;4.89;100.00
1616;BME280;801;47.982;7.810;2022-12-07T17:31:19;98502.91;;;4.87;100.00
1616;BME280;801;47.982;7.810;2022-12-07T17:33:46;98498.56;;;4.74;100.00
1616;BME280;801;47.982;7.810;2022-12-07T17:36:14;98498.78;;;4.73;100.00
1616;BME280;801;47.982;7.810;2022-12-07T17:38:43;98498.03;;;4.84;100.00
1616;BME280;801;47.982;7.810;2022-12-07T17:41:11;98496.78;;;4.68;100.00